createdAt,value
2017-12-02T00:00:51.560Z,30.47
2017-12-02T00:03:24.199Z,31.87
2017-12-02T00:05:56.107Z,32.37
2017-12-02T00:08:28.787Z,34.30
2017-12-02T00:11:01.455Z,30.13
2017-12-02T00:13:34.099Z,32.57
2017-12-02T00:16:06.007Z,32.73
2017-12-02T00:18:38.659Z,31.60
2017-12-02T00:21:10.579Z,33.23
2017-12-02T00:23:42.459Z,34.33
2017-12-02T00:26:14.347Z,30.80
2017-12-02T00:28:46.216Z,33.40
2017-12-02T00:31:18.908Z,34.23
2017-12-02T00:33:51.807Z,34.47
2017-12-02T00:36:23.705Z,35.87
2017-12-02T00:38:55.575Z,34.37
2017-12-02T00:41:27.488Z,33.50
2017-12-02T00:43:59.361Z,31.57
2017-12-02T00:46:31.238Z,33.53
2017-12-02T00:49:03.112Z,33.70
2017-12-02T00:51:35.017Z,33.67
2017-12-02T00:54:06.892Z,32.47
2017-12-02T00:56:38.787Z,33.07
2017-12-02T00:59:10.659Z,32.67
2017-12-02T01:01:42.559Z,32.87
2017-12-02T01:04:15.205Z,34.37
2017-12-02T01:06:47.087Z,35.00
2017-12-02T01:09:19.729Z,34.07
2017-12-02T01:11:51.635Z,35.07
2017-12-02T01:14:23.511Z,35.37
2017-12-02T01:16:55.400Z,34.20
2017-12-02T01:19:27.276Z,36.67
2017-12-02T01:21:59.172Z,35.73
2017-12-02T01:24:31.051Z,35.50
2017-12-02T01:27:02.948Z,34.33
2017-12-02T01:29:34.819Z,34.93
2017-12-02T01:32:06.724Z,35.53
2017-12-02T01:34:38.595Z,35.07
2017-12-02T01:37:10.484Z,35.10
2017-12-02T01:39:42.354Z,36.13
2017-12-02T01:42:14.264Z,35.37
2017-12-02T01:44:46.135Z,30.53
2017-12-02T01:47:18.024Z,36.60
2017-12-02T01:49:49.903Z,35.60
2017-12-02T01:52:21.806Z,37.07
2017-12-02T01:54:53.683Z,37.03
2017-12-02T01:57:25.567Z,37.77
2017-12-02T01:59:57.447Z,34.20
2017-12-02T02:02:29.356Z,36.00
2017-12-02T02:05:01.227Z,34.80
2017-12-02T02:07:33.150Z,36.40
2017-12-02T02:10:05.788Z,36.07
2017-12-02T02:12:37.680Z,35.27
2017-12-02T02:15:10.319Z,36.13
2017-12-02T02:17:42.232Z,34.20
2017-12-02T02:20:14.871Z,35.27
2017-12-02T02:22:46.765Z,32.93
2017-12-02T02:25:19.404Z,33.87
2017-12-02T02:27:51.308Z,30.33
2017-12-02T02:30:23.955Z,34.73
2017-12-02T02:32:56.158Z,32.73
2017-12-02T02:35:28.032Z,33.10
2017-12-02T02:37:59.915Z,34.60
2017-12-02T02:40:31.789Z,33.17
2017-12-02T02:43:03.703Z,26.63
2017-12-02T02:45:35.679Z,33.73
2017-12-02T02:48:07.574Z,27.97
2017-12-02T02:50:39.453Z,29.07
2017-12-02T02:53:11.352Z,30.27
2017-12-02T02:55:43.224Z,31.57
2017-12-02T02:58:15.115Z,31.63
2017-12-02T03:00:46.993Z,35.13
2017-12-02T03:03:18.912Z,31.20
2017-12-02T03:05:50.784Z,26.07
2017-12-02T03:08:22.688Z,29.67
2017-12-02T03:10:55.331Z,32.93
2017-12-02T03:13:27.229Z,30.73
2017-12-02T03:15:59.868Z,29.30
2017-12-02T03:18:31.766Z,27.80
2017-12-02T03:21:04.395Z,27.93
2017-12-02T03:23:36.867Z,33.40
2017-12-02T03:26:08.740Z,32.57
2017-12-02T03:28:40.633Z,28.87
2017-12-02T03:31:13.268Z,28.13
2017-12-02T03:33:45.196Z,28.83
2017-12-02T03:36:17.066Z,24.77
2017-12-02T03:38:48.971Z,31.53
2017-12-02T03:41:20.838Z,33.20
2017-12-02T03:43:52.736Z,31.97
2017-12-02T03:46:24.607Z,32.33
2017-12-02T03:48:56.496Z,35.27
2017-12-02T03:51:28.369Z,31.97
2017-12-02T03:54:00.324Z,33.87
2017-12-02T03:56:32.152Z,34.43
2017-12-02T03:59:04.035Z,34.53
2017-12-02T04:01:36.008Z,33.70
2017-12-02T04:04:08.128Z,38.80
2017-12-02T04:06:40.006Z,32.87
2017-12-02T04:09:11.983Z,33.07
2017-12-02T04:11:43.848Z,34.20
2017-12-02T04:14:15.747Z,32.93
2017-12-02T04:16:48.390Z,32.57
2017-12-02T04:19:20.291Z,30.73
2017-12-02T04:21:52.944Z,30.93
2017-12-02T04:24:24.835Z,31.67
2017-12-02T04:26:57.472Z,29.80
2017-12-02T04:29:29.372Z,29.83
2017-12-02T04:32:02.008Z,31.20
2017-12-02T04:34:34.229Z,31.53
2017-12-02T04:37:06.096Z,30.57
2017-12-02T04:39:37.997Z,27.47
2017-12-02T04:42:09.859Z,28.47
2017-12-02T04:44:41.763Z,25.97
2017-12-02T04:47:13.635Z,29.93
2017-12-02T04:49:45.527Z,28.43
2017-12-02T04:52:17.403Z,30.63
2017-12-02T04:54:49.296Z,31.17
2017-12-02T04:57:21.932Z,31.67
2017-12-02T04:59:53.827Z,31.77
2017-12-02T05:02:26.468Z,31.83
2017-12-02T05:04:58.367Z,31.73
2017-12-02T05:07:31.008Z,32.77
2017-12-02T05:10:02.904Z,31.37
2017-12-02T05:12:35.544Z,30.90
2017-12-02T05:15:07.435Z,34.00
2017-12-02T05:17:40.072Z,28.87
2017-12-02T05:20:11.974Z,30.97
2017-12-02T05:22:43.844Z,30.97
2017-12-02T05:25:16.498Z,32.57
2017-12-02T05:27:48.369Z,31.77
2017-12-02T05:30:20.276Z,33.03
2017-12-02T05:32:52.863Z,31.47
2017-12-02T05:35:24.771Z,30.93
2017-12-02T05:37:57.407Z,31.13
2017-12-02T05:40:29.295Z,32.00
2017-12-02T05:43:01.177Z,30.93
2017-12-02T05:45:33.848Z,33.73
2017-12-02T05:48:06.505Z,34.33
2017-12-02T05:50:39.900Z,36.57
2017-12-02T05:53:11.776Z,37.43
2017-12-02T05:55:43.680Z,34.20
2017-12-02T05:58:15.555Z,35.03
2017-12-02T06:00:47.448Z,35.73
2017-12-02T06:03:19.320Z,35.43
2017-12-02T06:05:51.983Z,33.93
2017-12-02T06:08:23.855Z,36.93
2017-12-02T06:10:55.744Z,36.47
2017-12-02T06:13:27.623Z,34.33
2017-12-02T06:15:59.545Z,33.47
2017-12-02T06:18:31.412Z,34.13
2017-12-02T06:21:04.071Z,35.03
2017-12-02T06:23:36.001Z,35.30
2017-12-02T06:26:08.615Z,35.27
2017-12-02T06:28:40.484Z,37.33
2017-12-02T06:31:13.150Z,34.77
2017-12-02T06:33:45.019Z,35.70
2017-12-02T06:36:17.684Z,37.50
2017-12-02T06:38:49.577Z,38.47
2017-12-02T06:41:21.463Z,37.80
2017-12-02T06:43:53.338Z,37.00
2017-12-02T06:46:25.232Z,37.83
2017-12-02T06:48:57.874Z,38.87
2017-12-02T06:51:29.777Z,39.87
2017-12-02T06:54:02.422Z,39.97
2017-12-02T06:56:34.312Z,38.07
2017-12-02T06:59:06.954Z,35.27
2017-12-02T07:01:38.853Z,36.73
2017-12-02T07:04:11.493Z,38.13
2017-12-02T07:06:43.395Z,37.10
2017-12-02T07:09:16.027Z,38.03
2017-12-02T07:11:47.923Z,35.60
2017-12-02T07:14:20.835Z,38.37
2017-12-02T07:16:52.783Z,39.77
2017-12-02T07:19:24.626Z,39.87
2017-12-02T07:21:56.535Z,39.90
2017-12-02T07:24:28.406Z,41.47
2017-12-02T07:27:00.323Z,44.37
2017-12-02T07:29:32.967Z,41.70
2017-12-02T07:32:05.696Z,40.27
2017-12-02T07:34:37.576Z,42.03
2017-12-02T07:37:09.459Z,42.97
2017-12-02T07:39:41.345Z,37.57
2017-12-02T07:42:13.240Z,37.40
2017-12-02T07:44:45.119Z,35.93
2017-12-02T07:47:17.006Z,36.17
2017-12-02T07:49:48.875Z,34.40
2017-12-02T07:52:20.783Z,35.60
2017-12-02T07:54:52.643Z,37.13
2017-12-02T07:57:24.544Z,38.27
2017-12-02T07:59:57.354Z,40.37
2017-12-02T08:02:29.235Z,38.83
2017-12-02T08:05:01.118Z,45.17
2017-12-02T08:07:33.008Z,37.33
2017-12-02T08:10:04.891Z,37.93
2017-12-02T08:12:36.804Z,36.17
2017-12-02T08:15:08.675Z,30.37
2017-12-02T08:17:40.584Z,34.97
2017-12-02T08:20:13.305Z,33.67
2017-12-02T08:22:45.213Z,36.37
2017-12-02T08:25:17.086Z,37.97
2017-12-02T08:27:49.743Z,36.63
2017-12-02T08:30:21.634Z,36.33
2017-12-02T08:32:54.308Z,36.63
2017-12-02T08:35:26.948Z,31.47
2017-12-02T08:37:58.844Z,37.67
2017-12-02T08:40:31.493Z,37.17
2017-12-02T08:43:03.400Z,35.10
2017-12-02T08:45:35.271Z,35.23
2017-12-02T08:48:07.163Z,35.93
2017-12-02T08:50:39.035Z,35.80
2017-12-02T08:53:10.948Z,35.47
2017-12-02T08:55:42.819Z,35.50
2017-12-02T08:58:14.713Z,34.47
2017-12-02T09:00:46.593Z,35.20
2017-12-02T09:03:19.244Z,29.93
2017-12-02T09:05:51.128Z,32.73
2017-12-02T09:08:23.034Z,34.97
2017-12-02T09:10:55.001Z,36.27
2017-12-02T09:13:26.905Z,35.33
2017-12-02T09:15:58.798Z,40.00
2017-12-02T09:18:30.701Z,34.97
2017-12-02T09:21:02.583Z,35.07
2017-12-02T09:23:34.488Z,37.77
2017-12-02T09:26:06.362Z,36.23
2017-12-02T09:28:38.270Z,37.17
2017-12-02T09:31:10.152Z,36.53
2017-12-02T09:33:42.813Z,36.57
2017-12-02T09:36:14.698Z,38.60
2017-12-02T09:38:46.613Z,38.97
2017-12-02T09:41:18.488Z,36.90
2017-12-02T09:43:50.380Z,37.63
2017-12-02T09:46:22.263Z,32.30
2017-12-02T09:48:54.167Z,36.00
2017-12-02T09:51:26.071Z,37.33
2017-12-02T09:53:57.961Z,35.07
2017-12-02T09:56:29.831Z,37.03
2017-12-02T09:59:01.731Z,33.77
2017-12-02T10:01:33.908Z,31.13
2017-12-02T10:04:05.804Z,35.20
2017-12-02T10:06:37.675Z,38.40
2017-12-02T10:09:09.997Z,37.13
2017-12-02T10:11:41.899Z,35.00
2017-12-02T10:14:13.820Z,37.83
2017-12-02T10:16:45.717Z,37.63
2017-12-02T10:19:17.619Z,36.90
2017-12-02T10:21:50.261Z,38.43
2017-12-02T10:24:22.148Z,38.67
2017-12-02T10:26:54.020Z,39.67
2017-12-02T10:29:26.676Z,39.00
2017-12-02T10:31:58.556Z,39.43
2017-12-02T10:34:31.231Z,38.60
2017-12-02T10:37:03.881Z,36.10
2017-12-02T10:39:35.784Z,37.33
2017-12-02T10:42:08.423Z,37.90
2017-12-02T10:44:40.332Z,37.53
2017-12-02T10:47:12.223Z,38.93
2017-12-02T10:49:44.132Z,38.23
2017-12-02T10:52:16.807Z,39.67
2017-12-02T10:54:49.472Z,39.20
2017-12-02T10:57:21.346Z,38.00
2017-12-02T10:59:54.025Z,39.47
2017-12-02T11:02:25.904Z,41.13
2017-12-02T11:04:57.861Z,39.33
2017-12-02T11:07:29.750Z,41.10
2017-12-02T11:10:01.636Z,40.77
2017-12-02T11:12:33.528Z,40.93
2017-12-02T11:15:06.209Z,42.00
2017-12-02T11:17:38.852Z,40.93
2017-12-02T11:20:10.755Z,43.03
2017-12-02T11:22:43.395Z,42.97
2017-12-02T11:25:15.295Z,42.50
2017-12-02T11:27:47.946Z,42.67
2017-12-02T11:30:19.843Z,42.57
2017-12-02T11:32:51.736Z,41.77
2017-12-02T11:35:23.652Z,41.57
2017-12-02T11:37:55.543Z,42.97
2017-12-02T11:40:27.440Z,40.23
2017-12-02T11:42:59.312Z,41.63
2017-12-02T11:45:31.216Z,39.43
2017-12-02T11:48:03.382Z,37.40
2017-12-02T11:50:35.291Z,41.60
2017-12-02T11:53:07.181Z,40.93
2017-12-02T11:55:39.844Z,41.33
2017-12-02T11:58:11.729Z,35.33
2017-12-02T12:00:43.620Z,40.73
2017-12-02T12:03:15.503Z,39.90
2017-12-02T12:05:47.403Z,40.87
2017-12-02T12:08:20.071Z,41.53
2017-12-02T12:10:52.750Z,43.40
2017-12-02T12:13:25.398Z,41.87
2017-12-02T12:15:57.304Z,42.77
2017-12-02T12:18:29.176Z,40.03
2017-12-02T12:21:01.069Z,36.77
2017-12-02T12:23:32.939Z,41.50
2017-12-02T12:26:04.848Z,46.30
2017-12-02T12:28:36.719Z,36.33
2017-12-02T12:31:08.624Z,33.23
2017-12-02T12:33:40.541Z,35.77
2017-12-02T12:36:12.432Z,34.37
2017-12-02T12:38:44.316Z,32.80
2017-12-02T12:41:16.224Z,38.13
2017-12-02T12:43:48.105Z,37.83
2017-12-02T12:46:20.036Z,39.90
2017-12-02T12:48:51.911Z,38.63
2017-12-02T12:51:23.811Z,35.70
2017-12-02T12:53:55.689Z,39.20
2017-12-02T12:56:28.360Z,38.20
2017-12-02T12:59:00.244Z,32.40
2017-12-02T13:01:32.916Z,37.33
2017-12-02T13:04:05.616Z,38.23
2017-12-02T13:06:37.504Z,39.07
2017-12-02T13:09:09.388Z,37.60
2017-12-02T13:11:41.284Z,34.60
2017-12-02T13:14:13.917Z,36.33
2017-12-02T13:16:45.816Z,36.83
2017-12-02T13:19:18.456Z,35.23
2017-12-02T13:21:50.352Z,37.23
2017-12-02T13:24:22.990Z,36.47
2017-12-02T13:26:54.908Z,35.47
2017-12-02T13:29:26.796Z,39.00
2017-12-02T13:31:58.697Z,37.87
2017-12-02T13:34:30.584Z,37.37
2017-12-02T13:37:02.495Z,35.57
2017-12-02T13:39:34.391Z,34.63
2017-12-02T13:42:07.039Z,32.77
2017-12-02T13:44:38.942Z,32.57
2017-12-02T13:47:11.612Z,34.83
2017-12-02T13:49:44.257Z,36.47
2017-12-02T13:52:16.153Z,33.60
2017-12-02T13:54:48.796Z,32.47
2017-12-02T13:57:20.691Z,31.43
2017-12-02T13:59:53.340Z,33.23
2017-12-02T14:02:25.543Z,34.60
2017-12-02T14:04:57.420Z,32.83
2017-12-02T14:07:29.336Z,34.30
2017-12-02T14:10:01.212Z,35.03
2017-12-02T14:12:33.880Z,31.60
2017-12-02T14:15:05.755Z,27.53
2017-12-02T14:17:38.413Z,29.03
2017-12-02T14:20:10.284Z,32.57
2017-12-02T14:22:42.955Z,33.07
2017-12-02T14:25:15.602Z,31.50
2017-12-02T14:27:47.502Z,30.87
2017-12-02T14:30:20.160Z,32.07
2017-12-02T14:32:52.064Z,29.47
2017-12-02T14:35:23.940Z,29.83
2017-12-02T14:37:55.851Z,31.70
2017-12-02T14:40:27.732Z,29.40
2017-12-02T14:43:00.395Z,32.50
2017-12-02T14:45:33.044Z,30.63
2017-12-02T14:48:04.960Z,33.77
2017-12-02T14:50:36.844Z,32.83
2017-12-02T14:53:08.742Z,32.03
2017-12-02T14:55:40.615Z,32.77
2017-12-02T14:58:13.291Z,33.30
2017-12-02T15:00:45.167Z,33.80
2017-12-02T15:03:17.851Z,33.33
2017-12-02T15:05:49.723Z,35.00
2017-12-02T15:08:21.635Z,31.43
2017-12-02T15:10:53.511Z,32.97
2017-12-02T15:13:26.179Z,35.40
2017-12-02T15:15:58.100Z,32.47
2017-12-02T15:18:29.993Z,33.27
2017-12-02T15:21:01.867Z,33.70
2017-12-02T15:23:33.775Z,35.60
2017-12-02T15:26:05.647Z,33.00
2017-12-02T15:28:37.535Z,32.13
2017-12-02T15:31:09.407Z,33.03
2017-12-02T15:33:41.310Z,33.47
2017-12-02T15:36:13.179Z,34.10
2017-12-02T15:38:45.080Z,35.53
2017-12-02T15:41:16.953Z,36.70
2017-12-02T15:43:48.859Z,34.57
2017-12-02T15:46:20.744Z,34.93
2017-12-02T15:48:52.632Z,35.63
2017-12-02T15:51:24.513Z,34.83
2017-12-02T15:53:57.171Z,34.27
2017-12-02T15:56:29.048Z,31.90
2017-12-02T15:59:01.704Z,33.17
2017-12-02T16:01:33.586Z,33.20
2017-12-02T16:04:06.252Z,29.83
2017-12-02T16:06:38.891Z,27.90
2017-12-02T16:09:10.795Z,32.70
2017-12-02T16:11:43.445Z,29.07
2017-12-02T16:14:15.340Z,33.00
2017-12-02T16:16:47.992Z,29.77
2017-12-02T16:19:19.895Z,32.57
2017-12-02T16:21:51.773Z,33.63
2017-12-02T16:24:23.655Z,30.07
2017-12-02T16:26:55.546Z,31.57
2017-12-02T16:29:27.440Z,32.57
2017-12-02T16:31:59.325Z,33.23
2017-12-02T16:34:31.219Z,32.07
2017-12-02T16:37:03.097Z,33.57
2017-12-02T16:39:35.759Z,33.13
2017-12-02T16:42:07.628Z,32.93
2017-12-02T16:44:40.289Z,31.43
2017-12-02T16:47:12.164Z,32.97
2017-12-02T16:49:44.824Z,35.63
2017-12-02T16:52:16.708Z,34.60
2017-12-02T16:54:49.364Z,31.37
2017-12-02T16:57:21.240Z,36.23
2017-12-02T16:59:53.963Z,32.07
2017-12-02T17:02:25.839Z,35.73
2017-12-02T17:04:57.738Z,35.77
2017-12-02T17:07:30.387Z,32.63
2017-12-02T17:10:02.309Z,31.57
2017-12-02T17:12:34.188Z,30.77
2017-12-02T17:15:06.087Z,31.10
2017-12-02T17:17:38.722Z,30.87
2017-12-02T17:20:10.611Z,33.77
2017-12-02T17:22:42.495Z,31.70
2017-12-02T17:25:15.151Z,33.40
2017-12-02T17:27:47.050Z,31.17
2017-12-02T17:30:19.703Z,28.70
2017-12-02T17:32:51.580Z,29.87
2017-12-02T17:35:23.494Z,28.60
2017-12-02T17:37:55.371Z,25.23
2017-12-02T17:40:27.272Z,24.77
2017-12-02T17:42:59.168Z,26.53
2017-12-02T17:45:31.071Z,27.20
2017-12-02T17:48:03.719Z,25.87
2017-12-02T17:50:35.624Z,23.83
2017-12-02T17:53:08.272Z,24.83
2017-12-02T17:55:40.175Z,24.10
2017-12-02T17:58:12.061Z,23.07
2017-12-02T18:00:43.968Z,26.53
2017-12-02T18:03:15.842Z,25.13
2017-12-02T18:05:47.751Z,24.17
2017-12-02T18:08:19.625Z,25.10
2017-12-02T18:10:51.516Z,25.23
2017-12-02T18:13:24.161Z,26.03
2017-12-02T18:15:56.052Z,26.00
2017-12-02T18:18:28.698Z,27.00
2017-12-02T18:21:00.600Z,27.17
2017-12-02T18:23:33.264Z,26.03
2017-12-02T18:26:05.175Z,26.13
2017-12-02T18:28:37.062Z,25.13
2017-12-02T18:31:08.969Z,26.53
2017-12-02T18:33:40.844Z,26.47
2017-12-02T18:36:12.747Z,26.53
2017-12-02T18:38:44.620Z,27.90
2017-12-02T18:41:16.539Z,28.43
2017-12-02T18:43:48.417Z,28.57
2017-12-02T18:46:20.321Z,29.53
2017-12-02T18:48:52.960Z,31.07
2017-12-02T18:51:24.852Z,28.73
2017-12-02T18:53:57.494Z,30.80
2017-12-02T18:56:29.389Z,32.50
2017-12-02T18:59:02.037Z,29.87
2017-12-02T19:01:33.923Z,31.47
2017-12-02T19:04:05.799Z,30.87
2017-12-02T19:06:38.460Z,32.37
2017-12-02T19:09:10.345Z,33.07
2017-12-02T19:11:42.268Z,30.43
2017-12-02T19:14:14.148Z,32.47
2017-12-02T19:16:46.820Z,33.80
2017-12-02T19:19:18.704Z,34.43
2017-12-02T19:21:50.595Z,30.77
2017-12-02T19:24:22.472Z,30.73
2017-12-02T19:26:54.388Z,32.30
2017-12-02T19:29:26.267Z,32.73
2017-12-02T19:31:58.179Z,31.60
2017-12-02T19:34:30.067Z,35.20
2017-12-02T19:37:01.975Z,30.13
2017-12-02T19:39:33.855Z,30.97
2017-12-02T19:42:05.762Z,29.70
2017-12-02T19:44:37.645Z,31.67
2017-12-02T19:47:09.556Z,30.17
2017-12-02T19:49:42.456Z,31.63
2017-12-02T19:52:14.356Z,31.80
2017-12-02T19:54:46.233Z,30.47
2017-12-02T19:57:18.124Z,28.17
2017-12-02T19:59:50.773Z,29.17
2017-12-02T20:02:22.685Z,30.50
2017-12-02T20:04:54.575Z,28.57
2017-12-02T20:07:26.462Z,27.40
2017-12-02T20:09:58.345Z,24.97
2017-12-02T20:12:31.015Z,29.47
2017-12-02T20:15:03.663Z,28.63
2017-12-02T20:17:35.577Z,27.10
2017-12-02T20:20:07.448Z,28.50
2017-12-02T20:22:39.364Z,29.83
2017-12-02T20:25:11.238Z,27.23
2017-12-02T20:27:43.928Z,28.30
2017-12-02T20:30:16.563Z,27.10
2017-12-02T20:32:48.466Z,27.13
2017-12-02T20:35:21.105Z,27.57
2017-12-02T20:37:53.021Z,26.73
2017-12-02T20:40:24.895Z,25.90
2017-12-02T20:42:56.804Z,28.00
2017-12-02T20:45:28.670Z,27.27
2017-12-02T20:48:01.357Z,28.63
2017-12-02T20:50:34.006Z,27.97
2017-12-02T20:53:05.900Z,26.20
2017-12-02T20:55:38.544Z,27.43
2017-12-02T20:58:10.437Z,27.87
2017-12-02T21:00:43.081Z,23.90
2017-12-02T21:03:14.993Z,29.53
2017-12-02T21:05:46.874Z,27.30
2017-12-02T21:08:18.774Z,23.80
2017-12-02T21:10:50.657Z,26.60
2017-12-02T21:13:22.569Z,28.00
2017-12-02T21:15:54.450Z,29.17
2017-12-02T21:18:26.352Z,29.57
2017-12-02T21:20:58.235Z,24.63
2017-12-02T21:23:30.138Z,28.57
2017-12-02T21:26:02.008Z,29.47
2017-12-02T21:28:34.664Z,29.47
2017-12-02T21:31:06.539Z,30.53
2017-12-02T21:33:39.228Z,30.63
2017-12-02T21:36:11.864Z,30.83
2017-12-02T21:38:43.792Z,27.73
2017-12-02T21:41:15.671Z,28.87
2017-12-02T21:43:47.657Z,27.97
2017-12-02T21:46:19.542Z,23.37
2017-12-02T21:48:52.196Z,24.63
2017-12-02T21:51:24.104Z,23.87
2017-12-02T21:53:56.752Z,23.33
2017-12-02T21:56:29.411Z,25.63
2017-12-02T21:59:01.345Z,25.53
2017-12-02T22:01:33.216Z,24.73
2017-12-02T22:04:05.119Z,26.33
2017-12-02T22:06:37.756Z,23.67
2017-12-02T22:09:09.655Z,24.73
2017-12-02T22:11:42.303Z,24.93
2017-12-02T22:14:14.216Z,23.20
2017-12-02T22:16:46.104Z,24.77
2017-12-02T22:19:18.032Z,23.80
2017-12-02T22:21:50.695Z,24.97
2017-12-02T22:24:23.368Z,24.40
2017-12-02T22:26:55.249Z,25.57
2017-12-02T22:29:27.928Z,26.63
2017-12-02T22:32:00.573Z,25.20
2017-12-02T22:34:32.481Z,25.70
2017-12-02T22:37:04.369Z,25.53
2017-12-02T22:39:37.026Z,26.60
2017-12-02T22:42:08.952Z,26.10
2017-12-02T22:44:41.611Z,26.83
2017-12-02T22:47:13.493Z,25.33
2017-12-02T22:49:46.158Z,25.43
2017-12-02T22:52:18.030Z,24.63
2017-12-02T22:54:50.700Z,25.60
2017-12-02T22:57:22.579Z,25.40
2017-12-02T22:59:55.247Z,25.03
2017-12-02T23:02:27.892Z,25.40
2017-12-02T23:04:59.806Z,25.97
2017-12-02T23:07:31.684Z,26.40
2017-12-02T23:10:03.592Z,24.37
2017-12-02T23:12:35.472Z,25.07
2017-12-02T23:15:08.172Z,24.47
2017-12-02T23:17:40.053Z,24.43
2017-12-02T23:20:11.956Z,24.90
